createdAt,value
2019-05-19T00:01:50.525Z,100.00
2019-05-19T00:04:21.359Z,100.00
2019-05-19T00:06:52.197Z,100.00
2019-05-19T00:09:24.092Z,100.00
2019-05-19T00:11:54.775Z,100.00
2019-05-19T00:14:26.511Z,100.00
2019-05-19T00:16:57.499Z,100.00
2019-05-19T00:19:30.517Z,100.00
2019-05-19T00:22:01.517Z,100.00
2019-05-19T00:24:34.705Z,100.00
2019-05-19T00:27:05.393Z,100.00
2019-05-19T00:29:36.149Z,100.00
2019-05-19T00:32:07.640Z,100.00
2019-05-19T00:34:40.054Z,100.00
2019-05-19T00:37:10.928Z,100.00
2019-05-19T00:39:41.719Z,100.00
2019-05-19T00:42:12.703Z,100.00
2019-05-19T00:44:43.506Z,100.00
2019-05-19T00:47:14.987Z,100.00
2019-05-19T00:49:46.528Z,100.00
2019-05-19T00:52:17.471Z,100.00
2019-05-19T00:54:48.912Z,100.00
2019-05-19T00:57:20.206Z,100.00
2019-05-19T00:59:52.505Z,100.00
2019-05-19T01:02:23.923Z,100.00
2019-05-19T01:04:56.123Z,100.00
2019-05-19T01:07:26.962Z,100.00
2019-05-19T01:09:57.762Z,100.00
2019-05-19T01:12:28.519Z,100.00
2019-05-19T01:14:59.328Z,100.00
2019-05-19T01:17:30.458Z,100.00
2019-05-19T01:20:01.571Z,100.00
2019-05-19T01:22:32.326Z,100.00
2019-05-19T01:25:03.066Z,100.00
2019-05-19T01:27:34.675Z,100.00
2019-05-19T01:30:06.127Z,100.00
2019-05-19T01:32:37.023Z,100.00
2019-05-19T01:35:07.928Z,100.00
2019-05-19T01:37:38.824Z,100.00
2019-05-19T01:40:10.125Z,100.00
2019-05-19T01:42:41.141Z,100.00
2019-05-19T01:45:12.875Z,100.00
2019-05-19T01:47:43.702Z,100.00
2019-05-19T01:50:18.518Z,100.00
2019-05-19T01:52:52.146Z,100.00
2019-05-19T01:55:22.977Z,100.00
2019-05-19T01:57:54.578Z,100.00
2019-05-19T02:00:25.268Z,100.00
2019-05-19T02:02:56.130Z,100.00
2019-05-19T02:05:27.038Z,100.00
2019-05-19T02:07:57.746Z,100.00
2019-05-19T02:10:28.455Z,100.00
2019-05-19T02:12:59.108Z,100.00
2019-05-19T02:15:33.849Z,100.00
2019-05-19T02:18:04.673Z,100.00
2019-05-19T02:20:35.286Z,100.00
2019-05-19T02:23:06.032Z,100.00
2019-05-19T02:25:37.892Z,100.00
2019-05-19T02:28:08.485Z,100.00
2019-05-19T02:30:39.519Z,100.00
2019-05-19T02:33:10.254Z,100.00
2019-05-19T02:35:42.871Z,100.00
2019-05-19T02:38:13.491Z,100.00
2019-05-19T02:40:48.144Z,100.00
2019-05-19T02:43:20.720Z,100.00
2019-05-19T02:45:53.133Z,100.00
2019-05-19T02:48:27.342Z,100.00
2019-05-19T02:51:00.197Z,100.00
2019-05-19T02:53:33.084Z,100.00
2019-05-19T02:56:05.089Z,100.00
2019-05-19T02:58:36.167Z,100.00
2019-05-19T03:01:06.741Z,100.00
2019-05-19T03:03:37.725Z,100.00
2019-05-19T03:06:10.225Z,100.00
2019-05-19T03:08:40.971Z,100.00
2019-05-19T03:11:11.736Z,100.00
2019-05-19T03:13:42.536Z,100.00
2019-05-19T03:16:13.455Z,100.00
2019-05-19T03:18:45.008Z,100.00
2019-05-19T03:21:15.671Z,100.00
2019-05-19T03:23:46.559Z,100.00
2019-05-19T03:26:18.154Z,100.00
2019-05-19T03:28:48.756Z,100.00
2019-05-19T03:31:26.851Z,100.00
2019-05-19T03:33:57.776Z,100.00
2019-05-19T03:36:28.838Z,100.00
2019-05-19T03:38:59.427Z,100.00
2019-05-19T03:41:30.488Z,100.00
2019-05-19T03:44:01.539Z,100.00
2019-05-19T03:46:32.734Z,100.00
2019-05-19T03:49:03.320Z,100.00
2019-05-19T03:51:34.275Z,100.00
2019-05-19T03:54:05.478Z,100.00
2019-05-19T03:56:36.069Z,100.00
2019-05-19T03:59:07.109Z,100.00
2019-05-19T04:01:37.646Z,100.00
2019-05-19T04:04:08.375Z,100.00
2019-05-19T04:06:38.939Z,100.00
2019-05-19T04:09:09.907Z,100.00
2019-05-19T04:11:41.723Z,100.00
2019-05-19T04:14:12.404Z,100.00
2019-05-19T04:16:43.111Z,100.00
2019-05-19T04:19:13.854Z,100.00
2019-05-19T04:21:48.879Z,100.00
2019-05-19T04:24:17.058Z,100.00
2019-05-19T04:26:47.912Z,100.00
2019-05-19T04:29:18.500Z,100.00
2019-05-19T04:31:49.085Z,100.00
2019-05-19T04:34:19.662Z,100.00
2019-05-19T04:36:50.601Z,100.00
2019-05-19T04:39:21.210Z,100.00
2019-05-19T04:41:51.875Z,100.00
2019-05-19T04:44:22.419Z,100.00
2019-05-19T04:46:53.410Z,100.00
2019-05-19T04:49:24.028Z,100.00
2019-05-19T04:52:06.019Z,98.87
2019-05-19T04:54:27.372Z,99.63
2019-05-19T04:56:58.396Z,100.00
2019-05-19T04:59:29.239Z,99.57
2019-05-19T05:02:00.364Z,98.57
2019-05-19T05:04:31.230Z,96.00
2019-05-19T05:07:04.506Z,95.65
2019-05-19T05:09:35.946Z,94.33
2019-05-19T05:12:06.765Z,94.09
2019-05-19T05:14:37.481Z,93.32
2019-05-19T05:17:08.073Z,93.05
2019-05-19T05:19:38.807Z,93.23
2019-05-19T05:22:21.724Z,92.66
2019-05-19T05:24:43.976Z,92.04
2019-05-19T05:27:14.992Z,92.09
2019-05-19T05:29:46.828Z,92.23
2019-05-19T05:32:17.792Z,91.23
2019-05-19T05:34:48.909Z,91.74
2019-05-19T05:37:20.088Z,90.60
2019-05-19T05:39:53.891Z,90.08
2019-05-19T05:42:25.034Z,90.07
2019-05-19T05:44:56.192Z,89.86
2019-05-19T05:47:52.036Z,89.99
2019-05-19T05:50:22.675Z,90.82
2019-05-19T05:52:53.593Z,90.41
2019-05-19T05:55:24.487Z,90.52
2019-05-19T05:57:55.304Z,90.19
2019-05-19T06:00:26.017Z,85.07
2019-05-19T06:02:57.299Z,87.01
2019-05-19T06:05:27.829Z,88.09
2019-05-19T06:07:59.580Z,84.83
2019-05-19T06:10:31.406Z,83.98
2019-05-19T06:13:02.049Z,83.75
2019-05-19T06:15:32.719Z,84.70
2019-05-19T06:18:03.830Z,83.99
2019-05-19T06:20:34.489Z,83.38
2019-05-19T06:23:05.197Z,85.92
2019-05-19T06:25:35.824Z,83.34
2019-05-19T06:28:06.835Z,80.79
2019-05-19T06:30:37.454Z,80.78
2019-05-19T06:33:08.056Z,84.05
2019-05-19T06:35:38.626Z,82.06
2019-05-19T06:38:11.947Z,83.44
2019-05-19T06:40:42.580Z,80.29
2019-05-19T06:43:13.631Z,81.58
2019-05-19T06:45:46.077Z,81.95
2019-05-19T06:48:17.378Z,84.34
2019-05-19T06:50:48.144Z,81.31
2019-05-19T06:53:19.120Z,80.88
2019-05-19T06:55:50.716Z,80.58
2019-05-19T06:58:21.690Z,81.81
2019-05-19T07:00:52.389Z,81.53
2019-05-19T07:03:23.492Z,81.16
2019-05-19T07:05:54.154Z,80.07
2019-05-19T07:08:25.058Z,77.20
2019-05-19T07:10:55.909Z,77.95
2019-05-19T07:13:26.544Z,78.15
2019-05-19T07:15:57.327Z,75.35
2019-05-19T07:18:29.399Z,78.11
2019-05-19T07:21:00.164Z,76.22
2019-05-19T07:23:30.820Z,78.11
2019-05-19T07:26:03.222Z,76.95
2019-05-19T07:28:35.383Z,77.33
2019-05-19T07:31:06.278Z,79.51
2019-05-19T07:33:37.066Z,79.31
2019-05-19T07:36:08.422Z,76.98
2019-05-19T07:38:39.093Z,77.13
2019-05-19T07:41:11.019Z,74.46
2019-05-19T07:43:41.937Z,74.11
2019-05-19T07:46:12.903Z,74.64
2019-05-19T07:48:44.108Z,73.27
2019-05-19T07:51:14.781Z,72.85
2019-05-19T07:53:45.818Z,71.31
2019-05-19T07:56:16.493Z,72.72
2019-05-19T07:58:47.638Z,74.10
2019-05-19T08:01:18.420Z,72.23
2019-05-19T08:03:49.966Z,70.82
2019-05-19T08:06:28.045Z,72.92
2019-05-19T08:09:00.002Z,75.30
2019-05-19T08:11:30.909Z,75.50
2019-05-19T08:14:02.098Z,75.96
2019-05-19T08:16:32.892Z,72.67
2019-05-19T08:19:03.901Z,71.56
2019-05-19T08:21:34.784Z,73.80
2019-05-19T08:24:05.597Z,72.91
2019-05-19T08:26:36.237Z,72.01
2019-05-19T08:29:07.853Z,70.35
2019-05-19T08:31:39.089Z,68.89
2019-05-19T08:34:10.612Z,66.45
2019-05-19T08:36:41.247Z,64.09
2019-05-19T08:39:14.073Z,62.53
2019-05-19T08:41:44.816Z,63.19
2019-05-19T08:44:18.158Z,59.75
2019-05-19T08:46:50.180Z,63.60
2019-05-19T08:49:20.795Z,61.28
2019-05-19T08:51:51.498Z,61.05
2019-05-19T08:54:22.058Z,61.33
2019-05-19T08:56:54.186Z,60.04
2019-05-19T08:59:24.936Z,62.17
2019-05-19T09:01:58.018Z,57.13
2019-05-19T09:04:32.360Z,54.72
2019-05-19T09:07:03.211Z,49.79
2019-05-19T09:09:34.539Z,46.15
2019-05-19T09:12:05.173Z,48.91
2019-05-19T09:14:36.105Z,48.42
2019-05-19T09:17:06.765Z,50.28
2019-05-19T09:19:38.123Z,55.22
2019-05-19T09:22:09.660Z,57.78
2019-05-19T09:24:40.295Z,58.81
2019-05-19T09:27:12.222Z,56.03
2019-05-19T09:29:43.882Z,55.78
2019-05-19T09:32:15.579Z,54.24
2019-05-19T09:34:46.791Z,54.46
2019-05-19T09:37:17.923Z,53.40
2019-05-19T09:39:49.212Z,50.86
2019-05-19T09:42:19.848Z,56.11
2019-05-19T09:44:50.585Z,53.80
2019-05-19T09:47:22.142Z,54.78
2019-05-19T09:49:54.020Z,54.34
2019-05-19T09:52:25.250Z,51.92
2019-05-19T09:54:57.311Z,49.73
2019-05-19T09:57:31.054Z,47.61
2019-05-19T10:00:01.727Z,48.03
2019-05-19T10:02:32.487Z,47.70
2019-05-19T10:05:04.088Z,52.56
2019-05-19T10:07:39.500Z,47.39
2019-05-19T10:10:19.778Z,50.11
2019-05-19T10:12:50.653Z,49.46
2019-05-19T10:15:25.427Z,46.60
2019-05-19T10:18:00.170Z,45.67
2019-05-19T10:20:32.213Z,47.60
2019-05-19T10:23:02.995Z,51.75
2019-05-19T10:25:36.130Z,55.39
2019-05-19T10:28:07.172Z,56.73
2019-05-19T10:30:43.514Z,56.83
2019-05-19T10:33:45.005Z,56.15
2019-05-19T10:36:18.391Z,56.01
2019-05-19T10:38:49.827Z,55.61
2019-05-19T10:41:22.078Z,54.72
2019-05-19T10:44:00.870Z,55.48
2019-05-19T10:46:31.651Z,55.05
2019-05-19T10:49:17.258Z,53.38
2019-05-19T10:51:47.909Z,51.23
2019-05-19T10:54:19.543Z,52.21
2019-05-19T10:56:51.113Z,54.69
2019-05-19T10:59:26.251Z,50.64
2019-05-19T11:02:04.677Z,51.75
2019-05-19T11:04:37.262Z,49.56
2019-05-19T11:07:08.851Z,51.60
2019-05-19T11:09:39.593Z,52.11
2019-05-19T11:12:10.782Z,52.83
2019-05-19T11:14:44.249Z,53.49
2019-05-19T11:17:14.954Z,52.73
2019-05-19T11:19:45.579Z,52.50
2019-05-19T11:22:16.946Z,53.48
2019-05-19T11:24:50.694Z,54.65
2019-05-19T11:27:23.243Z,52.08
2019-05-19T11:29:56.130Z,52.44
2019-05-19T11:32:27.095Z,49.10
2019-05-19T11:35:02.058Z,49.00
2019-05-19T11:37:34.297Z,46.93
2019-05-19T11:40:05.672Z,52.46
2019-05-19T11:42:36.320Z,52.35
2019-05-19T11:45:07.731Z,47.65
2019-05-19T11:47:38.642Z,45.96
2019-05-19T11:50:10.592Z,48.62
2019-05-19T11:52:41.856Z,48.08
2019-05-19T11:55:13.536Z,51.29
2019-05-19T11:57:46.072Z,53.86
2019-05-19T12:00:18.151Z,54.00
2019-05-19T12:02:48.963Z,52.96
2019-05-19T12:05:20.798Z,52.20
2019-05-19T12:07:53.765Z,51.15
2019-05-19T12:10:24.504Z,50.21
2019-05-19T12:12:55.202Z,51.19
2019-05-19T12:15:25.881Z,51.91
2019-05-19T12:17:56.699Z,52.01
2019-05-19T12:20:27.303Z,51.56
2019-05-19T12:22:58.063Z,51.23
2019-05-19T12:25:29.070Z,50.01
2019-05-19T12:27:59.766Z,49.74
2019-05-19T12:30:30.614Z,51.33
2019-05-19T12:33:01.255Z,51.61
2019-05-19T12:35:36.354Z,51.73
2019-05-19T12:38:07.179Z,55.33
2019-05-19T12:40:38.050Z,53.36
2019-05-19T12:43:09.083Z,53.51
2019-05-19T12:45:40.925Z,54.35
2019-05-19T12:48:12.297Z,47.51
2019-05-19T12:50:43.066Z,44.71
2019-05-19T12:53:14.188Z,46.99
2019-05-19T12:55:44.915Z,49.05
2019-05-19T12:58:15.987Z,48.42
2019-05-19T13:00:46.753Z,48.81
2019-05-19T13:03:17.422Z,48.02
2019-05-19T13:05:49.637Z,49.69
2019-05-19T13:08:20.409Z,49.14
2019-05-19T13:10:51.165Z,50.35
2019-05-19T13:13:22.092Z,50.41
2019-05-19T13:15:53.322Z,48.40
2019-05-19T13:18:24.437Z,43.43
2019-05-19T13:20:56.319Z,35.77
2019-05-19T13:23:27.165Z,32.69
2019-05-19T13:25:58.071Z,35.88
2019-05-19T13:28:28.864Z,34.32
2019-05-19T13:30:59.617Z,32.28
2019-05-19T13:33:30.666Z,32.09
2019-05-19T13:36:02.303Z,32.79
2019-05-19T13:38:33.033Z,35.39
2019-05-19T13:41:04.138Z,40.38
2019-05-19T13:43:35.110Z,44.28
2019-05-19T13:46:06.668Z,45.92
2019-05-19T13:48:37.526Z,46.95
2019-05-19T13:51:09.418Z,47.15
2019-05-19T13:53:40.876Z,44.93
2019-05-19T13:56:11.695Z,43.15
2019-05-19T13:58:42.683Z,43.66
2019-05-19T14:01:27.536Z,44.10
2019-05-19T14:03:46.973Z,42.98
2019-05-19T14:06:18.564Z,40.96
2019-05-19T14:08:49.249Z,41.48
2019-05-19T14:11:20.503Z,43.73
2019-05-19T14:13:51.362Z,44.23
2019-05-19T14:16:22.081Z,45.82
2019-05-19T14:18:54.183Z,47.26
2019-05-19T14:21:24.822Z,47.72
2019-05-19T14:23:55.698Z,49.02
2019-05-19T14:26:29.045Z,49.88
2019-05-19T14:28:59.757Z,49.69
2019-05-19T14:32:12.203Z,52.32
2019-05-19T14:35:13.929Z,49.35
2019-05-19T14:37:57.499Z,48.25
2019-05-19T14:40:58.166Z,46.25
2019-05-19T14:43:42.730Z,42.15
2019-05-19T14:46:33.048Z,42.64
2019-05-19T14:49:16.018Z,39.64
2019-05-19T14:51:49.775Z,38.13
2019-05-19T14:54:25.229Z,36.12
2019-05-19T14:56:55.767Z,35.98
2019-05-19T14:59:27.989Z,36.32
2019-05-19T15:01:58.932Z,35.86
2019-05-19T15:04:29.929Z,36.63
2019-05-19T15:07:01.419Z,39.41
2019-05-19T15:09:32.582Z,41.22
2019-05-19T15:12:06.064Z,43.51
2019-05-19T15:17:37.814Z,42.46
2019-05-19T15:20:09.248Z,41.11
2019-05-19T15:22:40.021Z,41.04
2019-05-19T15:25:10.707Z,39.89
2019-05-19T15:27:57.819Z,38.24
2019-05-19T15:30:23.237Z,36.72
2019-05-19T15:32:57.546Z,33.69
2019-05-19T15:35:28.562Z,35.56
2019-05-19T15:38:00.060Z,33.22
2019-05-19T15:40:30.879Z,34.30
2019-05-19T15:43:02.219Z,34.05
2019-05-19T15:45:33.378Z,36.54
2019-05-19T15:48:06.556Z,40.04
2019-05-19T15:50:38.589Z,42.92
2019-05-19T15:53:10.290Z,45.05
2019-05-19T15:55:41.342Z,46.96
2019-05-19T15:58:16.518Z,45.17
2019-05-19T16:00:45.871Z,45.44
2019-05-19T16:03:17.020Z,45.74
2019-05-19T16:05:47.857Z,45.64
2019-05-19T16:08:18.815Z,46.23
2019-05-19T16:10:49.409Z,45.91
2019-05-19T16:13:22.107Z,46.07
2019-05-19T16:15:55.333Z,45.98
2019-05-19T16:18:27.146Z,46.44
2019-05-19T16:20:57.719Z,47.30
2019-05-19T16:23:28.881Z,47.46
2019-05-19T16:25:59.596Z,47.10
2019-05-19T16:28:31.213Z,48.30
2019-05-19T16:31:03.362Z,49.37
2019-05-19T16:33:34.058Z,50.84
2019-05-19T16:36:07.873Z,52.97
2019-05-19T16:38:38.232Z,58.71
2019-05-19T16:41:09.653Z,59.75
2019-05-19T16:43:40.186Z,62.64
2019-05-19T16:46:12.428Z,63.81
2019-05-19T16:48:45.425Z,67.79
2019-05-19T16:51:16.755Z,67.17
2019-05-19T16:53:51.450Z,70.93
2019-05-19T16:56:24.388Z,74.86
2019-05-19T16:58:55.926Z,76.48
2019-05-19T17:01:27.269Z,74.79
2019-05-19T17:03:59.826Z,76.59
2019-05-19T17:06:31.658Z,79.93
2019-05-19T17:09:04.017Z,79.36
2019-05-19T17:11:37.440Z,80.44
2019-05-19T17:14:10.131Z,82.49
2019-05-19T17:16:43.086Z,83.16
2019-05-19T17:19:21.444Z,83.99
2019-05-19T17:21:52.924Z,84.88
2019-05-19T17:24:26.188Z,85.08
2019-05-19T17:26:59.627Z,85.57
2019-05-19T17:29:39.713Z,84.75
2019-05-19T17:32:12.655Z,84.42
2019-05-19T17:34:43.650Z,81.45
2019-05-19T17:37:14.416Z,82.71
2019-05-19T17:39:47.504Z,84.20
2019-05-19T17:42:20.407Z,86.73
2019-05-19T17:44:51.953Z,88.62
2019-05-19T17:47:22.614Z,89.62
2019-05-19T17:49:53.305Z,90.44
2019-05-19T17:52:24.678Z,91.77
2019-05-19T17:54:55.694Z,93.77
2019-05-19T17:57:30.085Z,95.92
2019-05-19T18:00:01.925Z,97.05
2019-05-19T18:02:33.335Z,97.79
2019-05-19T18:05:07.258Z,98.39
2019-05-19T18:07:38.997Z,98.07
2019-05-19T18:10:10.080Z,97.89
2019-05-19T18:12:42.037Z,98.45
2019-05-19T18:15:13.038Z,98.85
2019-05-19T18:17:47.009Z,99.40
2019-05-19T18:20:23.797Z,98.26
2019-05-19T18:22:59.876Z,98.95
2019-05-19T18:25:30.669Z,99.08
2019-05-19T18:28:01.709Z,97.65
2019-05-19T18:30:32.537Z,96.78
2019-05-19T18:33:03.964Z,95.55
2019-05-19T18:35:35.176Z,94.77
2019-05-19T18:38:10.282Z,94.97
2019-05-19T18:40:41.223Z,95.65
2019-05-19T18:43:12.851Z,94.50
2019-05-19T18:45:43.418Z,94.38
2019-05-19T18:48:15.747Z,93.42
2019-05-19T18:50:48.245Z,92.42
2019-05-19T18:53:21.361Z,92.32
2019-05-19T18:55:51.947Z,92.08
2019-05-19T18:58:24.051Z,92.37
2019-05-19T19:00:55.981Z,91.71
2019-05-19T19:03:29.149Z,91.82
2019-05-19T19:06:03.775Z,92.01
2019-05-19T19:08:38.059Z,91.01
2019-05-19T19:11:09.253Z,91.02
2019-05-19T19:13:42.322Z,90.02
2019-05-19T19:16:14.081Z,90.65
2019-05-19T19:18:45.153Z,89.86
2019-05-19T19:21:16.186Z,87.67
2019-05-19T19:23:46.997Z,86.98
2019-05-19T19:26:18.236Z,87.69
2019-05-19T19:28:50.298Z,87.04
2019-05-19T19:31:21.210Z,85.78
2019-05-19T19:33:52.570Z,85.79
2019-05-19T19:36:23.198Z,84.16
2019-05-19T19:38:54.153Z,89.13
2019-05-19T19:41:24.859Z,91.56
2019-05-19T19:43:55.674Z,87.70
2019-05-19T19:46:43.299Z,87.71
2019-05-19T19:49:15.291Z,91.59
2019-05-19T19:51:47.042Z,93.03
2019-05-19T19:54:17.714Z,94.75
2019-05-19T19:56:48.384Z,95.73
2019-05-19T19:59:21.654Z,97.26
2019-05-19T20:01:54.267Z,95.94
2019-05-19T20:04:25.474Z,92.98
2019-05-19T20:06:56.539Z,91.70
2019-05-19T20:09:27.504Z,92.00
2019-05-19T20:11:58.357Z,91.67
2019-05-19T20:14:32.271Z,92.62
2019-05-19T20:17:03.177Z,93.43
2019-05-19T20:19:33.786Z,94.46
2019-05-19T20:22:05.177Z,94.70
2019-05-19T20:24:37.627Z,95.41
2019-05-19T20:27:08.557Z,96.19
2019-05-19T20:29:39.288Z,96.99
2019-05-19T20:32:10.057Z,98.75
2019-05-19T20:34:41.600Z,98.35
2019-05-19T20:37:15.136Z,98.33
2019-05-19T20:39:45.067Z,98.60
2019-05-19T20:42:15.849Z,98.47
2019-05-19T20:44:47.314Z,97.96
2019-05-19T20:47:18.080Z,97.84
2019-05-19T20:49:52.104Z,98.01
2019-05-19T20:52:26.607Z,98.84
2019-05-19T20:54:58.162Z,98.65
2019-05-19T20:57:28.902Z,98.44
2019-05-19T21:00:12.213Z,99.03
2019-05-19T21:02:42.847Z,97.32
2019-05-19T21:05:14.339Z,95.88
2019-05-19T21:07:45.455Z,94.13
2019-05-19T21:10:16.432Z,90.02
2019-05-19T21:12:47.025Z,90.70
2019-05-19T21:15:17.862Z,93.57
2019-05-19T21:17:48.543Z,96.81
2019-05-19T21:20:19.437Z,100.00
2019-05-19T21:22:50.012Z,100.00
2019-05-19T21:25:23.003Z,100.00
2019-05-19T21:27:54.353Z,100.00
2019-05-19T21:30:25.479Z,100.00
2019-05-19T21:32:56.143Z,100.00
2019-05-19T21:35:26.772Z,100.00
2019-05-19T21:37:57.571Z,100.00
2019-05-19T21:54:48.219Z,100.00
2019-05-19T21:57:18.972Z,100.00
2019-05-19T21:59:49.605Z,100.00
2019-05-19T22:02:21.510Z,100.00
2019-05-19T22:04:52.133Z,100.00
2019-05-19T22:07:42.962Z,100.00
2019-05-19T22:10:13.856Z,100.00
2019-05-19T22:21:36.726Z,100.00
2019-05-19T22:27:44.201Z,100.00
2019-05-19T22:30:16.529Z,100.00
2019-05-19T22:32:47.141Z,100.00
2019-05-19T22:35:17.913Z,100.00
2019-05-19T22:37:48.965Z,100.00
2019-05-19T22:40:20.279Z,100.00
2019-05-19T22:42:54.281Z,100.00
2019-05-19T22:45:26.077Z,100.00
2019-05-19T22:47:56.857Z,100.00
2019-05-19T22:50:29.034Z,100.00
2019-05-19T22:52:59.608Z,100.00
2019-05-19T22:55:30.233Z,100.00
2019-05-19T22:58:00.816Z,100.00
2019-05-19T23:00:31.934Z,100.00
2019-05-19T23:03:02.573Z,100.00
2019-05-19T23:05:33.673Z,100.00
2019-05-19T23:08:04.726Z,100.00
2019-05-19T23:10:35.636Z,100.00
2019-05-19T23:13:08.270Z,100.00
2019-05-19T23:15:40.266Z,100.00
2019-05-19T23:18:11.013Z,100.00
2019-05-19T23:20:42.619Z,100.00
2019-05-19T23:23:13.984Z,100.00
2019-05-19T23:25:44.585Z,100.00
2019-05-19T23:28:16.685Z,100.00
2019-05-19T23:30:47.347Z,100.00
2019-05-19T23:33:18.549Z,100.00
2019-05-19T23:35:50.345Z,100.00
2019-05-19T23:38:21.572Z,100.00
2019-05-19T23:40:53.417Z,100.00
2019-05-19T23:43:24.345Z,100.00
2019-05-19T23:45:54.995Z,100.00
2019-05-19T23:48:25.644Z,100.00
2019-05-19T23:50:56.265Z,100.00
2019-05-19T23:53:27.177Z,100.00
2019-05-19T23:55:57.722Z,100.00
2019-05-19T23:58:28.431Z,100.00
